x

Georgian Bay (45137) Wave Buoy

10:00pm - Tue 29th Jul 2014 All times are CDT. -5 hours from GMT.

  • Sig Wave height 2.0ft
  • Peak Period 3s
  • Wind
    13mph, 16mph gusts
  • Sea Temp 62°f
  • Air Temp 60°f
  • Sea Pressure 1012.7mb
  • Georgian Bay
  • Georgian Bay

More Historic Weather Station data

Upgrade to MSW Pro to gain access to the past 30 days of data for over 8000 Wavebouys and Weather Stations around the globe.

Join Pro

Comparision Forecast

View Surf forecast
   
Tue 07/29 10:00pm 2ft 3s 13 16 mph 1012.7mb 62f 60f
9:00pm 2ft 4s 13 16 mph 1012.8mb 62f 60f
8:00pm 2.5ft 4s 18 20 mph 1012.3mb 62f 59f
7:00pm 2ft 4s 16 20 mph 1012.4mb 62f 59f
6:00pm 2ft 4s 16 18 mph 1012.2mb 62f 59f
5:00pm 1.6ft 4s 16 18 mph 1012.3mb 62f 59f
4:00pm 1.6ft 3s 13 16 mph 1012.3mb 62f 60f
3:00pm 1.3ft 3s 13 16 mph 1011.9mb 62f 60f
2:00pm 1.6ft 3s 13 18 mph 1012mb 62f 59f
1:00pm 1.3ft 3s 16 18 mph 1012.1mb 62f 59f
12:00pm 1ft 3s 16 18 mph 1012.4mb 62f 58f
11:00am 1ft 3s 11
mph
1012.7mb 62f 59f
10:00am 1.3ft 3s 11 16 mph 1012.7mb 62f 58f
9:00am 1.3ft 3s 13 16 mph 1012.5mb 62f 58f
8:00am 1.3ft 3s 13 16 mph 1012.4mb 62f 59f
7:00am 1.6ft 3s 11 13 mph 1012.1mb 62f 60f
6:00am 1.6ft 3s 13 16 mph 1011.9mb 62f 59f
5:00am 1.6ft 4s 16 18 mph 1011.6mb 62f 60f
4:00am 2ft 4s 13
mph
1011.6mb 62f 60f
3:00am 1.6ft 3s 16 18 mph 1011.5mb 62f 60f
2:00am 1.3ft 3s 13 16 mph 1011.8mb 62f 61f
1:00am 1.3ft 3s 16 18 mph 1012.3mb 62f 61f
12:00am 1ft 3s 13
mph
1012.7mb 62f 61f
Mon 07/28 11:00pm 1.3ft 3s 9 11 mph 1012.6mb 62f 62f
10:00pm 1.6ft 4s 11 13 mph 1012.9mb 62f 62f
9:00pm 1.6ft 3s 13 16 mph 1013mb 62f 62f
8:00pm 2ft 4s 13 16 mph 1012.7mb 62f 62f
7:00pm 2ft 3s 13 16 mph 1012.2mb 63f 63f
6:00pm 2ft 4s 16 20 mph 1011.9mb 63f 63f
5:00pm 2ft 4s 16 18 mph 1011.9mb 63f 64f
2:00pm 2.5ft 4s 13 16 mph 1012mb 63f 61f
1:00pm 3ft 5s 16 20 mph 1011.9mb 63f 59f
12:00pm 3.5ft 4s 18 22 mph 1012mb 63f 58f
11:00am 3.5ft 4s 20 25 mph 1012.1mb 63f 57f
9:00am 4.5ft 5s 22 27 mph 1011.2mb 63f 56f
8:00am 4.5ft 5s 25 31 mph 1010.8mb 62f 55f
7:00am 4.5ft 5s 27 31 mph 1010.6mb 63f 55f
6:00am 4.5ft 4s 25 31 mph 1010.3mb 63f 57f
5:00am 4.5ft 5s 27 34 mph 1009.8mb 63f 57f
4:00am 4.5ft 5s 27
mph
1009mb 63f 58f
3:00am 5ft 5s 29 34 mph 1008.3mb 63f 59f
2:00am 5ft 5s 29 34 mph 1007.5mb 63f 60f
1:00am 4.5ft 5s 29 36 mph 1007.3mb 64f 62f
12:00am 3.5ft 4s 27 34 mph 1007.1mb 64f 64f
Sun 07/27 10:00pm 1.6ft 4s 16 20 mph 1007.1mb 64f 66f
9:00pm 1.3ft 3s 13 18 mph 1006.7mb 64f 67f
8:00pm 1.3ft 3s 13 16 mph 1005.7mb 64f 67f
7:00pm 1ft 2s 13 18 mph 1005.1mb 64f 67f
6:00pm 0.7ft 2s 16
mph
1005.1mb 65f 67f
5:00pm 0.7ft 2s 9 11 mph 1005.9mb 65f 65f
4:00pm 0.7ft 2s 11 13 mph 1005.8mb 65f 65f
3:00pm 0.7ft 2s 11 13 mph 1005.9mb 65f 65f
2:00pm 0.7ft 2s 9
mph
1005.7mb 65f 64f
1:00pm 0.7ft 3s 13
mph
1006mb 65f 64f
12:00pm 0.7ft 3s 7 9 mph 1005.7mb 65f 64f
11:00am 0.7ft 3s 7
mph
1005.6mb 64f 64f
10:00am 0.7ft 3s 9
mph
1005.5mb 64f 63f
9:00am 1ft 3s 9 11 mph 1005.2mb 64f 63f
8:00am 1.3ft 3s 9 11 mph 1005mb 63f 63f
7:00am 1.3ft 3s 11 13 mph 1005.2mb 63f 63f
6:00am 1ft 3s 16 18 mph 1005mb 63f 63f
5:00am 0.7ft 3s 9 11 mph 1005.1mb 64f 63f
4:00am 0.7ft 3s 11 13 mph 1005mb 64f 63f
3:00am 0.7ft 3s 9 11 mph 1004.8mb 64f 63f
2:00am 0.7ft 3s 9
mph
1004.9mb 64f 63f
1:00am 0.7ft 3s 9
mph
1004.8mb 64f 63f
12:00am 1ft 3s 9
mph
1005.3mb 64f 64f
Sat 07/26 11:00pm 1.3ft 3s 9 13 mph 1005.6mb 64f 64f
10:00pm 1.3ft 3s 7 9 mph 1006.2mb 64f 64f
9:00pm 1.6ft 3s 11 13 mph 1006.7mb 64f 64f
8:00pm 1ft 3s 18 20 mph 1006.4mb 64f 64f
7:00pm 0.7ft 3s 7 9 mph 1007.5mb 64f 63f
6:00pm 0.7ft 3s 4 7 mph 1007.8mb 64f 65f
5:00pm 0.7ft 3s 7 9 mph 1008.1mb 64f 65f
4:00pm 0.7ft 3s 4 7 mph 1008.4mb 64f 64f
3:00pm 0.7ft 3s 7 9 mph 1009.5mb 64f 64f
2:00pm 1ft 3s 7 9 mph 1009.8mb 64f 63f
1:00pm 1ft 3s 7 9 mph 1010mb 64f 63f
12:00pm 1ft 3s 9 11 mph 1010.1mb 64f 63f
11:00am 1ft 3s 11 13 mph 1010.7mb 64f 63f
10:00am 1ft 3s 11 13 mph 1010.8mb 64f 63f
9:00am 1.3ft 3s 13 16 mph 1010.9mb 64f 64f
8:00am 0.7ft 2s 11 13 mph 1011.1mb 64f 64f
7:00am 0.7ft 2s 11 13 mph 1011.2mb 64f 64f
6:00am 1ft 3s 11 16 mph 1011.2mb 64f 63f
5:00am 1ft 3s 9 11 mph 1011.7mb 64f 63f